sensor_id;sensor_type;location;lat;lon;timestamp;temperature;humidity
49679;DHT22;35570;48.218;16.326;2023-03-29T00:00:35;4.30;59.80
49679;DHT22;35570;48.218;16.326;2023-03-29T00:03:02;4.20;59.60
49679;DHT22;35570;48.218;16.326;2023-03-29T00:05:28;4.20;59.70
49679;DHT22;35570;48.218;16.326;2023-03-29T00:07:59;4.10;59.80
49679;DHT22;35570;48.218;16.326;2023-03-29T00:10:30;4.20;59.80
49679;DHT22;35570;48.218;16.326;2023-03-29T00:12:57;4.10;60.30
49679;DHT22;35570;48.218;16.326;2023-03-29T00:15:23;4.20;59.70
49679;DHT22;35570;48.218;16.326;2023-03-29T00:17:49;4.20;59.90
49679;DHT22;35570;48.218;16.326;2023-03-29T00:20:15;4.20;60.60
49679;DHT22;35570;48.218;16.326;2023-03-29T00:22:42;4.20;60.40
49679;DHT22;35570;48.218;16.326;2023-03-29T00:25:10;4.20;60.00
49679;DHT22;35570;48.218;16.326;2023-03-29T00:27:36;4.10;60.00
49679;DHT22;35570;48.218;16.326;2023-03-29T00:30:03;4.10;60.00
49679;DHT22;35570;48.218;16.326;2023-03-29T00:32:30;4.10;60.30
49679;DHT22;35570;48.218;16.326;2023-03-29T00:34:57;4.10;60.70
49679;DHT22;35570;48.218;16.326;2023-03-29T00:37:26;4.10;60.80
49679;DHT22;35570;48.218;16.326;2023-03-29T00:39:56;4.10;60.70
49679;DHT22;35570;48.218;16.326;2023-03-29T00:42:22;4.10;61.20
49679;DHT22;35570;48.218;16.326;2023-03-29T00:47:53;4.10;61.30
49679;DHT22;35570;48.218;16.326;2023-03-29T00:52:56;4.00;61.20
49679;DHT22;35570;48.218;16.326;2023-03-29T00:55:27;4.00;61.40
49679;DHT22;35570;48.218;16.326;2023-03-29T00:57:55;4.00;61.50
49679;DHT22;35570;48.218;16.326;2023-03-29T01:00:25;4.00;61.40
49679;DHT22;35570;48.218;16.326;2023-03-29T01:02:54;3.90;61.50
49679;DHT22;35570;48.218;16.326;2023-03-29T01:05:37;3.90;61.60
49679;DHT22;35570;48.218;16.326;2023-03-29T01:08:05;3.90;61.90
49679;DHT22;35570;48.218;16.326;2023-03-29T01:10:37;3.90;62.10
49679;DHT22;35570;48.218;16.326;2023-03-29T01:13:08;4.00;62.30
49679;DHT22;35570;48.218;16.326;2023-03-29T01:15:36;3.90;62.30
49679;DHT22;35570;48.218;16.326;2023-03-29T01:18:03;3.90;62.30
49679;DHT22;35570;48.218;16.326;2023-03-29T01:26:30;3.90;63.20
49679;DHT22;35570;48.218;16.326;2023-03-29T01:29:13;3.90;63.30
49679;DHT22;35570;48.218;16.326;2023-03-29T01:31:44;3.90;63.50
49679;DHT22;35570;48.218;16.326;2023-03-29T01:34:20;3.90;63.50
49679;DHT22;35570;48.218;16.326;2023-03-29T01:39:38;3.90;63.80
49679;DHT22;35570;48.218;16.326;2023-03-29T01:45:06;3.90;63.40
49679;DHT22;35570;48.218;16.326;2023-03-29T01:48:05;3.80;64.10
49679;DHT22;35570;48.218;16.326;2023-03-29T01:53:18;3.70;64.60
49679;DHT22;35570;48.218;16.326;2023-03-29T01:55:58;3.70;64.60
49679;DHT22;35570;48.218;16.326;2023-03-29T01:58:31;3.70;64.50
49679;DHT22;35570;48.218;16.326;2023-03-29T02:00:59;3.70;64.90
49679;DHT22;35570;48.218;16.326;2023-03-29T02:03:27;3.70;65.30
49679;DHT22;35570;48.218;16.326;2023-03-29T02:05:56;3.70;65.50
49679;DHT22;35570;48.218;16.326;2023-03-29T02:08:23;3.70;65.40
49679;DHT22;35570;48.218;16.326;2023-03-29T02:10:50;3.70;65.40
49679;DHT22;35570;48.218;16.326;2023-03-29T02:13:17;3.60;65.30
49679;DHT22;35570;48.218;16.326;2023-03-29T02:15:46;3.60;65.50
49679;DHT22;35570;48.218;16.326;2023-03-29T02:18:14;3.50;65.60
49679;DHT22;35570;48.218;16.326;2023-03-29T02:20:45;3.50;65.80
49679;DHT22;35570;48.218;16.326;2023-03-29T02:23:19;3.50;65.80
49679;DHT22;35570;48.218;16.326;2023-03-29T02:25:49;3.50;65.70
49679;DHT22;35570;48.218;16.326;2023-03-29T02:28:18;3.40;65.80
49679;DHT22;35570;48.218;16.326;2023-03-29T02:33:17;3.30;65.80
49679;DHT22;35570;48.218;16.326;2023-03-29T02:36:23;3.40;66.20
49679;DHT22;35570;48.218;16.326;2023-03-29T02:38:53;3.30;66.00
49679;DHT22;35570;48.218;16.326;2023-03-29T02:41:20;3.30;66.10
49679;DHT22;35570;48.218;16.326;2023-03-29T02:43:48;3.30;66.30
49679;DHT22;35570;48.218;16.326;2023-03-29T02:46:15;3.30;66.40
49679;DHT22;35570;48.218;16.326;2023-03-29T02:48:45;3.40;67.30
49679;DHT22;35570;48.218;16.326;2023-03-29T02:51:22;3.40;67.00
49679;DHT22;35570;48.218;16.326;2023-03-29T02:53:58;3.30;66.90
49679;DHT22;35570;48.218;16.326;2023-03-29T02:56:25;3.40;67.10
49679;DHT22;35570;48.218;16.326;2023-03-29T02:58:51;3.30;66.90
49679;DHT22;35570;48.218;16.326;2023-03-29T03:01:17;3.30;67.00
49679;DHT22;35570;48.218;16.326;2023-03-29T03:03:45;3.30;66.50
49679;DHT22;35570;48.218;16.326;2023-03-29T03:06:12;3.20;66.20
49679;DHT22;35570;48.218;16.326;2023-03-29T03:08:38;3.20;66.10
49679;DHT22;35570;48.218;16.326;2023-03-29T03:11:04;3.20;66.70
49679;DHT22;35570;48.218;16.326;2023-03-29T03:13:31;3.20;66.40
49679;DHT22;35570;48.218;16.326;2023-03-29T03:15:57;3.20;66.50
49679;DHT22;35570;48.218;16.326;2023-03-29T03:18:23;3.20;66.70
49679;DHT22;35570;48.218;16.326;2023-03-29T03:20:59;3.20;66.40
49679;DHT22;35570;48.218;16.326;2023-03-29T03:23:28;3.20;66.40
49679;DHT22;35570;48.218;16.326;2023-03-29T03:25:55;3.20;66.40
49679;DHT22;35570;48.218;16.326;2023-03-29T03:28:21;3.30;66.60
49679;DHT22;35570;48.218;16.326;2023-03-29T03:30:48;3.30;66.60
49679;DHT22;35570;48.218;16.326;2023-03-29T03:33:16;3.30;66.60
49679;DHT22;35570;48.218;16.326;2023-03-29T03:35:43;3.30;66.70
49679;DHT22;35570;48.218;16.326;2023-03-29T03:38:11;3.30;66.70
49679;DHT22;35570;48.218;16.326;2023-03-29T03:40:36;3.20;66.70
49679;DHT22;35570;48.218;16.326;2023-03-29T03:43:03;3.30;66.80
49679;DHT22;35570;48.218;16.326;2023-03-29T03:45:28;3.30;66.70
49679;DHT22;35570;48.218;16.326;2023-03-29T03:47:55;3.20;67.90
49679;DHT22;35570;48.218;16.326;2023-03-29T03:50:21;3.20;69.20
49679;DHT22;35570;48.218;16.326;2023-03-29T03:52:47;3.20;69.60
49679;DHT22;35570;48.218;16.326;2023-03-29T03:55:13;3.10;68.90
49679;DHT22;35570;48.218;16.326;2023-03-29T03:57:39;3.20;69.60
49679;DHT22;35570;48.218;16.326;2023-03-29T04:00:05;3.20;69.30
49679;DHT22;35570;48.218;16.326;2023-03-29T04:02:47;3.20;69.20
49679;DHT22;35570;48.218;16.326;2023-03-29T04:05:13;3.20;69.10
49679;DHT22;35570;48.218;16.326;2023-03-29T04:07:39;3.30;69.60
49679;DHT22;35570;48.218;16.326;2023-03-29T04:10:06;3.30;68.90
49679;DHT22;35570;48.218;16.326;2023-03-29T04:12:37;3.40;68.70
49679;DHT22;35570;48.218;16.326;2023-03-29T04:15:04;3.40;67.50
49679;DHT22;35570;48.218;16.326;2023-03-29T04:17:30;3.40;67.10
49679;DHT22;35570;48.218;16.326;2023-03-29T04:19:55;3.40;66.80
49679;DHT22;35570;48.218;16.326;2023-03-29T04:22:23;3.30;66.80
49679;DHT22;35570;48.218;16.326;2023-03-29T04:24:50;3.20;67.20
49679;DHT22;35570;48.218;16.326;2023-03-29T04:27:16;3.20;67.10
49679;DHT22;35570;48.218;16.326;2023-03-29T04:29:42;3.20;67.20
49679;DHT22;35570;48.218;16.326;2023-03-29T04:32:10;3.20;66.90
49679;DHT22;35570;48.218;16.326;2023-03-29T04:34:36;3.20;67.10
49679;DHT22;35570;48.218;16.326;2023-03-29T04:37:02;3.20;67.70
49679;DHT22;35570;48.218;16.326;2023-03-29T04:39:35;3.20;67.20
49679;DHT22;35570;48.218;16.326;2023-03-29T04:42:01;3.20;67.30
49679;DHT22;35570;48.218;16.326;2023-03-29T04:44:28;3.20;66.50
49679;DHT22;35570;48.218;16.326;2023-03-29T04:46:54;3.20;66.60
49679;DHT22;35570;48.218;16.326;2023-03-29T04:49:20;3.20;66.70
49679;DHT22;35570;48.218;16.326;2023-03-29T04:51:45;3.20;66.70
49679;DHT22;35570;48.218;16.326;2023-03-29T04:54:12;3.30;66.80
49679;DHT22;35570;48.218;16.326;2023-03-29T04:56:37;3.30;66.70
49679;DHT22;35570;48.218;16.326;2023-03-29T04:59:03;3.30;66.80
49679;DHT22;35570;48.218;16.326;2023-03-29T05:01:30;3.40;66.70
49679;DHT22;35570;48.218;16.326;2023-03-29T05:03:56;3.40;66.40
49679;DHT22;35570;48.218;16.326;2023-03-29T05:06:22;3.50;66.50
49679;DHT22;35570;48.218;16.326;2023-03-29T05:08:48;3.50;66.50
49679;DHT22;35570;48.218;16.326;2023-03-29T05:11:13;3.50;66.80
49679;DHT22;35570;48.218;16.326;2023-03-29T05:13:45;3.60;66.80
49679;DHT22;35570;48.218;16.326;2023-03-29T05:16:11;3.60;66.90
49679;DHT22;35570;48.218;16.326;2023-03-29T05:18:37;3.60;66.70
49679;DHT22;35570;48.218;16.326;2023-03-29T05:21:03;3.60;66.90
49679;DHT22;35570;48.218;16.326;2023-03-29T05:23:29;3.60;67.50
49679;DHT22;35570;48.218;16.326;2023-03-29T05:25:55;3.50;66.90
49679;DHT22;35570;48.218;16.326;2023-03-29T05:28:21;3.50;66.90
49679;DHT22;35570;48.218;16.326;2023-03-29T05:31:00;3.50;67.20
49679;DHT22;35570;48.218;16.326;2023-03-29T05:33:27;3.50;67.20
49679;DHT22;35570;48.218;16.326;2023-03-29T05:36:05;3.50;67.40
49679;DHT22;35570;48.218;16.326;2023-03-29T05:38:31;3.60;67.50
49679;DHT22;35570;48.218;16.326;2023-03-29T05:40:58;3.60;67.00
49679;DHT22;35570;48.218;16.326;2023-03-29T05:43:25;3.60;66.70
49679;DHT22;35570;48.218;16.326;2023-03-29T05:45:54;3.70;67.20
49679;DHT22;35570;48.218;16.326;2023-03-29T05:48:21;3.70;67.10
49679;DHT22;35570;48.218;16.326;2023-03-29T05:50:49;3.80;67.00
49679;DHT22;35570;48.218;16.326;2023-03-29T05:53:15;3.90;67.20
49679;DHT22;35570;48.218;16.326;2023-03-29T05:55:41;4.00;66.70
49679;DHT22;35570;48.218;16.326;2023-03-29T05:58:08;4.10;66.50
49679;DHT22;35570;48.218;16.326;2023-03-29T06:00:35;4.20;66.70
49679;DHT22;35570;48.218;16.326;2023-03-29T06:03:04;4.30;66.30
49679;DHT22;35570;48.218;16.326;2023-03-29T06:05:30;4.30;65.10
49679;DHT22;35570;48.218;16.326;2023-03-29T06:07:56;4.40;65.80
49679;DHT22;35570;48.218;16.326;2023-03-29T06:10:22;4.50;64.70
49679;DHT22;35570;48.218;16.326;2023-03-29T06:12:49;4.60;64.50
49679;DHT22;35570;48.218;16.326;2023-03-29T06:15:16;4.70;64.40
49679;DHT22;35570;48.218;16.326;2023-03-29T06:17:42;4.80;64.40
49679;DHT22;35570;48.218;16.326;2023-03-29T06:20:11;4.70;63.60
49679;DHT22;35570;48.218;16.326;2023-03-29T06:22:38;4.80;63.90
49679;DHT22;35570;48.218;16.326;2023-03-29T06:25:05;4.90;63.90
49679;DHT22;35570;48.218;16.326;2023-03-29T06:27:32;5.00;63.10
49679;DHT22;35570;48.218;16.326;2023-03-29T06:29:58;5.00;62.30
49679;DHT22;35570;48.218;16.326;2023-03-29T06:32:25;5.00;62.30
49679;DHT22;35570;48.218;16.326;2023-03-29T06:34:52;5.10;61.60
49679;DHT22;35570;48.218;16.326;2023-03-29T06:37:19;5.20;61.40
49679;DHT22;35570;48.218;16.326;2023-03-29T06:39:46;5.30;61.30
49679;DHT22;35570;48.218;16.326;2023-03-29T06:42:18;5.30;59.20
49679;DHT22;35570;48.218;16.326;2023-03-29T06:44:44;5.20;58.20
49679;DHT22;35570;48.218;16.326;2023-03-29T06:47:10;5.40;58.40
49679;DHT22;35570;48.218;16.326;2023-03-29T06:49:36;5.50;58.70
49679;DHT22;35570;48.218;16.326;2023-03-29T06:52:01;5.70;58.60
49679;DHT22;35570;48.218;16.326;2023-03-29T06:54:28;5.60;57.30
49679;DHT22;35570;48.218;16.326;2023-03-29T06:56:53;5.70;57.50
49679;DHT22;35570;48.218;16.326;2023-03-29T06:59:19;5.70;57.80
49679;DHT22;35570;48.218;16.326;2023-03-29T07:01:45;5.70;56.80
49679;DHT22;35570;48.218;16.326;2023-03-29T07:04:11;5.70;56.50
49679;DHT22;35570;48.218;16.326;2023-03-29T07:06:37;5.70;56.80
49679;DHT22;35570;48.218;16.326;2023-03-29T07:09:03;5.60;57.20
49679;DHT22;35570;48.218;16.326;2023-03-29T07:11:31;5.70;56.50
49679;DHT22;35570;48.218;16.326;2023-03-29T07:13:59;5.60;56.40
49679;DHT22;35570;48.218;16.326;2023-03-29T07:16:27;5.60;55.90
49679;DHT22;35570;48.218;16.326;2023-03-29T07:18:53;5.60;57.20
49679;DHT22;35570;48.218;16.326;2023-03-29T07:21:18;5.70;56.90
49679;DHT22;35570;48.218;16.326;2023-03-29T07:23:44;5.70;56.70
49679;DHT22;35570;48.218;16.326;2023-03-29T07:26:10;5.70;55.90
49679;DHT22;35570;48.218;16.326;2023-03-29T07:28:36;5.80;55.80
49679;DHT22;35570;48.218;16.326;2023-03-29T07:31:08;5.90;56.90
49679;DHT22;35570;48.218;16.326;2023-03-29T07:33:36;5.90;56.40
49679;DHT22;35570;48.218;16.326;2023-03-29T07:36:02;6.10;55.90
49679;DHT22;35570;48.218;16.326;2023-03-29T07:38:29;6.20;55.50
49679;DHT22;35570;48.218;16.326;2023-03-29T07:40:56;6.20;54.40
49679;DHT22;35570;48.218;16.326;2023-03-29T07:43:22;6.20;54.60
49679;DHT22;35570;48.218;16.326;2023-03-29T07:45:49;6.30;55.90
49679;DHT22;35570;48.218;16.326;2023-03-29T07:48:16;6.40;59.00
49679;DHT22;35570;48.218;16.326;2023-03-29T07:50:44;6.50;56.20
49679;DHT22;35570;48.218;16.326;2023-03-29T07:53:10;6.60;55.80
49679;DHT22;35570;48.218;16.326;2023-03-29T07:55:36;6.70;51.90
49679;DHT22;35570;48.218;16.326;2023-03-29T07:58:03;6.70;54.10
49679;DHT22;35570;48.218;16.326;2023-03-29T08:00:29;6.70;52.90
49679;DHT22;35570;48.218;16.326;2023-03-29T08:02:55;6.80;52.20
49679;DHT22;35570;48.218;16.326;2023-03-29T08:05:22;6.70;52.30
49679;DHT22;35570;48.218;16.326;2023-03-29T08:07:48;6.80;52.40
49679;DHT22;35570;48.218;16.326;2023-03-29T08:10:19;7.00;52.20
49679;DHT22;35570;48.218;16.326;2023-03-29T08:12:48;6.90;51.60
49679;DHT22;35570;48.218;16.326;2023-03-29T08:15:14;7.00;51.60
49679;DHT22;35570;48.218;16.326;2023-03-29T08:17:41;7.00;50.30
49679;DHT22;35570;48.218;16.326;2023-03-29T08:20:11;7.10;51.30
49679;DHT22;35570;48.218;16.326;2023-03-29T08:22:39;7.20;50.20
49679;DHT22;35570;48.218;16.326;2023-03-29T08:25:05;7.30;50.90
49679;DHT22;35570;48.218;16.326;2023-03-29T08:27:32;7.40;49.70
49679;DHT22;35570;48.218;16.326;2023-03-29T08:29:58;7.50;50.40
49679;DHT22;35570;48.218;16.326;2023-03-29T08:32:24;7.50;50.00
49679;DHT22;35570;48.218;16.326;2023-03-29T08:34:49;7.50;49.60
49679;DHT22;35570;48.218;16.326;2023-03-29T08:37:15;7.50;49.60
49679;DHT22;35570;48.218;16.326;2023-03-29T08:39:41;7.50;50.80
49679;DHT22;35570;48.218;16.326;2023-03-29T08:50:47;8.20;50.40
49679;DHT22;35570;48.218;16.326;2023-03-29T08:53:30;8.30;49.20
49679;DHT22;35570;48.218;16.326;2023-03-29T08:55:59;8.50;49.80
49679;DHT22;35570;48.218;16.326;2023-03-29T08:58:30;8.50;48.30
49679;DHT22;35570;48.218;16.326;2023-03-29T09:00:59;8.70;47.60
49679;DHT22;35570;48.218;16.326;2023-03-29T09:04:07;8.70;47.90
49679;DHT22;35570;48.218;16.326;2023-03-29T09:06:33;8.70;47.80
49679;DHT22;35570;48.218;16.326;2023-03-29T09:08:59;8.80;48.80
49679;DHT22;35570;48.218;16.326;2023-03-29T09:11:36;8.80;47.30
49679;DHT22;35570;48.218;16.326;2023-03-29T09:22:30;8.90;48.80
49679;DHT22;35570;48.218;16.326;2023-03-29T09:25:23;8.90;48.90
49679;DHT22;35570;48.218;16.326;2023-03-29T09:28:04;9.00;47.80
49679;DHT22;35570;48.218;16.326;2023-03-29T09:30:41;9.10;48.60
49679;DHT22;35570;48.218;16.326;2023-03-29T09:38:21;8.80;47.60
49679;DHT22;35570;48.218;16.326;2023-03-29T09:41:01;8.80;47.90
49679;DHT22;35570;48.218;16.326;2023-03-29T09:43:31;8.80;46.80
49679;DHT22;35570;48.218;16.326;2023-03-29T09:46:02;8.70;48.00
49679;DHT22;35570;48.218;16.326;2023-03-29T09:48:30;8.70;46.90
49679;DHT22;35570;48.218;16.326;2023-03-29T09:50:59;8.70;48.10
49679;DHT22;35570;48.218;16.326;2023-03-29T09:53:27;8.80;49.30
49679;DHT22;35570;48.218;16.326;2023-03-29T09:55:52;8.70;47.30
49679;DHT22;35570;48.218;16.326;2023-03-29T09:58:24;8.70;48.60
49679;DHT22;35570;48.218;16.326;2023-03-29T10:00:56;8.70;47.90
49679;DHT22;35570;48.218;16.326;2023-03-29T10:03:27;8.70;48.10
49679;DHT22;35570;48.218;16.326;2023-03-29T10:05:57;8.80;48.60
49679;DHT22;35570;48.218;16.326;2023-03-29T10:08:28;8.80;49.10
49679;DHT22;35570;48.218;16.326;2023-03-29T10:10:59;8.70;49.00
49679;DHT22;35570;48.218;16.326;2023-03-29T10:13:28;8.80;49.90
49679;DHT22;35570;48.218;16.326;2023-03-29T10:16:24;8.80;48.50
49679;DHT22;35570;48.218;16.326;2023-03-29T10:18:48;8.70;48.70
49679;DHT22;35570;48.218;16.326;2023-03-29T10:21:17;8.50;48.30
49679;DHT22;35570;48.218;16.326;2023-03-29T10:23:45;8.50;49.50
49679;DHT22;35570;48.218;16.326;2023-03-29T10:26:31;8.40;49.80
49679;DHT22;35570;48.218;16.326;2023-03-29T10:28:58;8.40;49.30
49679;DHT22;35570;48.218;16.326;2023-03-29T10:31:30;8.40;49.60
49679;DHT22;35570;48.218;16.326;2023-03-29T10:34:01;8.50;49.70
49679;DHT22;35570;48.218;16.326;2023-03-29T10:36:29;8.50;49.50
49679;DHT22;35570;48.218;16.326;2023-03-29T10:38:59;8.60;49.50
49679;DHT22;35570;48.218;16.326;2023-03-29T10:41:26;8.60;50.00
49679;DHT22;35570;48.218;16.326;2023-03-29T10:43:53;8.60;49.50
49679;DHT22;35570;48.218;16.326;2023-03-29T10:49:03;8.50;50.00
49679;DHT22;35570;48.218;16.326;2023-03-29T10:51:31;8.40;49.70
49679;DHT22;35570;48.218;16.326;2023-03-29T10:54:01;8.20;50.00
49679;DHT22;35570;48.218;16.326;2023-03-29T10:59:27;8.30;50.90
49679;DHT22;35570;48.218;16.326;2023-03-29T11:02:25;8.40;50.80
49679;DHT22;35570;48.218;16.326;2023-03-29T11:20:37;8.50;51.70
49679;DHT22;35570;48.218;16.326;2023-03-29T11:26:23;8.70;51.40
49679;DHT22;35570;48.218;16.326;2023-03-29T11:29:01;8.70;51.80
49679;DHT22;35570;48.218;16.326;2023-03-29T11:37:22;8.80;55.30
49679;DHT22;35570;48.218;16.326;2023-03-29T11:42:27;8.50;56.10
49679;DHT22;35570;48.218;16.326;2023-03-29T11:44:58;8.70;56.00
49679;DHT22;35570;48.218;16.326;2023-03-29T11:47:33;8.80;55.40
49679;DHT22;35570;48.218;16.326;2023-03-29T11:50:21;9.00;55.40
49679;DHT22;35570;48.218;16.326;2023-03-29T11:52:55;9.10;55.30
49679;DHT22;35570;48.218;16.326;2023-03-29T11:55:29;9.30;55.50
49679;DHT22;35570;48.218;16.326;2023-03-29T11:58:12;9.30;55.40
49679;DHT22;35570;48.218;16.326;2023-03-29T12:00:44;9.10;55.90
49679;DHT22;35570;48.218;16.326;2023-03-29T12:08:14;9.10;57.00
49679;DHT22;35570;48.218;16.326;2023-03-29T12:10:55;9.20;56.50
49679;DHT22;35570;48.218;16.326;2023-03-29T12:16:18;9.30;57.70
49679;DHT22;35570;48.218;16.326;2023-03-29T12:18:48;9.20;58.10
49679;DHT22;35570;48.218;16.326;2023-03-29T12:21:19;9.10;58.40
49679;DHT22;35570;48.218;16.326;2023-03-29T12:23:45;9.00;58.40
49679;DHT22;35570;48.218;16.326;2023-03-29T12:37:30;9.00;60.00
49679;DHT22;35570;48.218;16.326;2023-03-29T12:40:15;9.10;60.70
49679;DHT22;35570;48.218;16.326;2023-03-29T12:42:46;9.40;61.10
49679;DHT22;35570;48.218;16.326;2023-03-29T12:45:18;9.60;60.10
49679;DHT22;35570;48.218;16.326;2023-03-29T12:47:45;9.60;59.40
49679;DHT22;35570;48.218;16.326;2023-03-29T12:50:32;9.60;59.40
49679;DHT22;35570;48.218;16.326;2023-03-29T12:53:20;9.40;60.00
49679;DHT22;35570;48.218;16.326;2023-03-29T12:55:49;9.30;60.50
49679;DHT22;35570;48.218;16.326;2023-03-29T12:58:26;9.20;60.80
49679;DHT22;35570;48.218;16.326;2023-03-29T13:01:07;9.20;61.00
49679;DHT22;35570;48.218;16.326;2023-03-29T13:06:07;9.30;60.90
49679;DHT22;35570;48.218;16.326;2023-03-29T13:11:03;9.60;60.50
49679;DHT22;35570;48.218;16.326;2023-03-29T13:13:33;9.50;60.50
49679;DHT22;35570;48.218;16.326;2023-03-29T13:16:20;9.40;61.50
49679;DHT22;35570;48.218;16.326;2023-03-29T13:21:20;9.50;61.80
49679;DHT22;35570;48.218;16.326;2023-03-29T13:27:02;9.60;62.10
49679;DHT22;35570;48.218;16.326;2023-03-29T13:40:57;9.50;62.60
49679;DHT22;35570;48.218;16.326;2023-03-29T13:43:34;9.70;63.40
49679;DHT22;35570;48.218;16.326;2023-03-29T13:51:36;10.10;62.30
49679;DHT22;35570;48.218;16.326;2023-03-29T13:56:42;10.30;62.50
49679;DHT22;35570;48.218;16.326;2023-03-29T13:59:18;10.30;63.70
49679;DHT22;35570;48.218;16.326;2023-03-29T14:01:51;10.30;63.10
49679;DHT22;35570;48.218;16.326;2023-03-29T14:04:42;10.10;63.70
49679;DHT22;35570;48.218;16.326;2023-03-29T14:07:11;9.60;65.70
49679;DHT22;35570;48.218;16.326;2023-03-29T14:09:42;9.30;67.50
49679;DHT22;35570;48.218;16.326;2023-03-29T14:12:12;9.30;68.10
49679;DHT22;35570;48.218;16.326;2023-03-29T14:14:42;9.30;68.00
49679;DHT22;35570;48.218;16.326;2023-03-29T14:17:14;9.30;68.10
49679;DHT22;35570;48.218;16.326;2023-03-29T14:19:41;9.40;67.60
49679;DHT22;35570;48.218;16.326;2023-03-29T14:22:14;9.40;67.80
49679;DHT22;35570;48.218;16.326;2023-03-29T14:24:46;9.40;67.70
49679;DHT22;35570;48.218;16.326;2023-03-29T14:27:16;9.50;68.20
49679;DHT22;35570;48.218;16.326;2023-03-29T14:29:48;9.60;68.10
49679;DHT22;35570;48.218;16.326;2023-03-29T14:32:18;9.60;68.20
49679;DHT22;35570;48.218;16.326;2023-03-29T14:34:47;9.40;68.90
49679;DHT22;35570;48.218;16.326;2023-03-29T14:37:17;9.40;69.30
49679;DHT22;35570;48.218;16.326;2023-03-29T14:39:46;9.50;69.60
49679;DHT22;35570;48.218;16.326;2023-03-29T14:42:18;9.40;70.10
49679;DHT22;35570;48.218;16.326;2023-03-29T14:44:48;9.40;70.80
49679;DHT22;35570;48.218;16.326;2023-03-29T14:47:28;9.40;71.80
49679;DHT22;35570;48.218;16.326;2023-03-29T14:49:54;9.30;71.90
49679;DHT22;35570;48.218;16.326;2023-03-29T14:52:23;9.30;72.20
49679;DHT22;35570;48.218;16.326;2023-03-29T14:54:53;9.40;72.40
49679;DHT22;35570;48.218;16.326;2023-03-29T14:57:24;9.40;72.60
49679;DHT22;35570;48.218;16.326;2023-03-29T15:00:01;9.40;72.70
49679;DHT22;35570;48.218;16.326;2023-03-29T15:02:31;9.40;73.30
49679;DHT22;35570;48.218;16.326;2023-03-29T15:05:04;9.30;73.80
49679;DHT22;35570;48.218;16.326;2023-03-29T15:07:33;9.30;74.40
49679;DHT22;35570;48.218;16.326;2023-03-29T15:10:00;9.10;74.80
49679;DHT22;35570;48.218;16.326;2023-03-29T15:12:31;9.10;74.30
49679;DHT22;35570;48.218;16.326;2023-03-29T15:14:58;9.10;74.30
49679;DHT22;35570;48.218;16.326;2023-03-29T15:17:33;9.10;75.50
49679;DHT22;35570;48.218;16.326;2023-03-29T15:20:07;9.00;76.60
49679;DHT22;35570;48.218;16.326;2023-03-29T15:22:38;9.00;75.20
49679;DHT22;35570;48.218;16.326;2023-03-29T15:25:14;9.00;76.80
49679;DHT22;35570;48.218;16.326;2023-03-29T15:27:41;9.00;77.30
49679;DHT22;35570;48.218;16.326;2023-03-29T15:30:13;9.00;78.80
49679;DHT22;35570;48.218;16.326;2023-03-29T15:32:39;8.90;79.70
49679;DHT22;35570;48.218;16.326;2023-03-29T15:35:19;8.80;80.40
49679;DHT22;35570;48.218;16.326;2023-03-29T15:37:45;8.70;81.10
49679;DHT22;35570;48.218;16.326;2023-03-29T15:40:15;8.60;82.00
49679;DHT22;35570;48.218;16.326;2023-03-29T15:42:47;8.60;82.50
49679;DHT22;35570;48.218;16.326;2023-03-29T15:45:15;8.60;83.00
49679;DHT22;35570;48.218;16.326;2023-03-29T15:47:41;8.50;84.10
49679;DHT22;35570;48.218;16.326;2023-03-29T15:50:07;8.40;85.30
49679;DHT22;35570;48.218;16.326;2023-03-29T15:52:33;8.30;86.60
49679;DHT22;35570;48.218;16.326;2023-03-29T15:54:59;8.30;87.80
49679;DHT22;35570;48.218;16.326;2023-03-29T15:57:26;8.20;87.30
49679;DHT22;35570;48.218;16.326;2023-03-29T15:59:51;8.10;87.10
49679;DHT22;35570;48.218;16.326;2023-03-29T16:02:20;8.10;89.10
49679;DHT22;35570;48.218;16.326;2023-03-29T16:04:47;8.00;89.80
49679;DHT22;35570;48.218;16.326;2023-03-29T16:07:14;8.10;89.70
49679;DHT22;35570;48.218;16.326;2023-03-29T16:09:42;8.10;89.80
49679;DHT22;35570;48.218;16.326;2023-03-29T16:12:08;8.10;90.20
49679;DHT22;35570;48.218;16.326;2023-03-29T16:14:34;8.00;90.60
49679;DHT22;35570;48.218;16.326;2023-03-29T16:17:01;8.00;91.10
49679;DHT22;35570;48.218;16.326;2023-03-29T16:19:28;8.00;91.20
49679;DHT22;35570;48.218;16.326;2023-03-29T16:21:55;7.90;91.40
49679;DHT22;35570;48.218;16.326;2023-03-29T16:24:26;7.90;91.40
49679;DHT22;35570;48.218;16.326;2023-03-29T16:26:53;7.90;92.10
49679;DHT22;35570;48.218;16.326;2023-03-29T16:29:19;7.80;91.80
49679;DHT22;35570;48.218;16.326;2023-03-29T16:31:47;7.80;92.40
49679;DHT22;35570;48.218;16.326;2023-03-29T16:34:14;7.80;92.70
49679;DHT22;35570;48.218;16.326;2023-03-29T16:36:41;7.70;93.70
49679;DHT22;35570;48.218;16.326;2023-03-29T16:39:09;7.70;93.70
49679;DHT22;35570;48.218;16.326;2023-03-29T16:41:40;7.70;94.20
49679;DHT22;35570;48.218;16.326;2023-03-29T16:44:06;7.70;94.30
49679;DHT22;35570;48.218;16.326;2023-03-29T16:46:32;7.70;94.40
49679;DHT22;35570;48.218;16.326;2023-03-29T16:48:58;7.70;94.50
49679;DHT22;35570;48.218;16.326;2023-03-29T16:51:24;7.70;94.70
49679;DHT22;35570;48.218;16.326;2023-03-29T16:53:50;7.70;94.40
49679;DHT22;35570;48.218;16.326;2023-03-29T16:56:17;7.80;94.50
49679;DHT22;35570;48.218;16.326;2023-03-29T16:58:44;7.70;93.80
49679;DHT22;35570;48.218;16.326;2023-03-29T17:01:13;7.80;94.30
49679;DHT22;35570;48.218;16.326;2023-03-29T17:03:41;7.70;94.30
49679;DHT22;35570;48.218;16.326;2023-03-29T17:06:08;7.70;94.60
49679;DHT22;35570;48.218;16.326;2023-03-29T17:08:34;7.70;95.30
49679;DHT22;35570;48.218;16.326;2023-03-29T17:11:01;7.60;95.00
49679;DHT22;35570;48.218;16.326;2023-03-29T17:13:27;7.60;95.30
49679;DHT22;35570;48.218;16.326;2023-03-29T17:15:54;7.50;95.60
49679;DHT22;35570;48.218;16.326;2023-03-29T17:18:23;7.50;96.00
49679;DHT22;35570;48.218;16.326;2023-03-29T17:20:50;7.40;96.50
49679;DHT22;35570;48.218;16.326;2023-03-29T17:23:16;7.40;96.70
49679;DHT22;35570;48.218;16.326;2023-03-29T17:25:42;7.40;97.20
49679;DHT22;35570;48.218;16.326;2023-03-29T17:28:08;7.40;96.70
49679;DHT22;35570;48.218;16.326;2023-03-29T17:30:35;7.30;96.90
49679;DHT22;35570;48.218;16.326;2023-03-29T17:33:02;7.30;97.40
49679;DHT22;35570;48.218;16.326;2023-03-29T17:35:28;7.30;97.80
49679;DHT22;35570;48.218;16.326;2023-03-29T17:37:54;7.30;97.20
49679;DHT22;35570;48.218;16.326;2023-03-29T17:40:22;7.20;96.20
49679;DHT22;35570;48.218;16.326;2023-03-29T17:42:49;7.30;96.00
49679;DHT22;35570;48.218;16.326;2023-03-29T17:45:17;7.30;95.70
49679;DHT22;35570;48.218;16.326;2023-03-29T17:47:43;7.30;95.30
49679;DHT22;35570;48.218;16.326;2023-03-29T17:50:10;7.20;95.80